CGMAE CYYZ-CYXU
Flight info
| Callsign | CGMAE |
|---|---|
| Flight time | 0h 50m |
| Altitude | 20000 |
| Route | MIXUT7 DERLO |
| Aircraft | C700/M-SBDGHM1RWXY/LB2 |
Departure
| Time | 2026-05-06 22:55 |
|---|---|
| Airport | Toronto Pearson International Airport (CYYZ) |
Arrival
| Time | 2026-05-06 23:45 |
|---|---|
| Airport | London International Airport (CYXU) |
| Time | Latitude | Longitude | Altitude | Speed | Heading |
|---|---|---|---|---|---|
| 2026-05-06 22:29 | 43.69376 | -79.65284 | 566 ft | 0 kts | 329° |
| 2026-05-06 22:47 | 43.69377 | -79.65284 | 563 ft | 1 kts | 346° |
| 2026-05-06 22:47 | 43.69378 | -79.65268 | 568 ft | 4 kts | 139° |
| 2026-05-06 22:47 | 43.69328 | -79.65244 | 567 ft | 12 kts | 149° |
| 2026-05-06 22:47 | 43.69251 | -79.65168 | 566 ft | 15 kts | 142° |
| 2026-05-06 22:48 | 43.69170 | -79.65067 | 561 ft | 16 kts | 136° |
| 2026-05-06 22:48 | 43.69086 | -79.64961 | 559 ft | 18 kts | 139° |
| 2026-05-06 22:48 | 43.69028 | -79.64885 | 558 ft | 9 kts | 140° |
| 2026-05-06 22:48 | 43.68977 | -79.64822 | 557 ft | 11 kts | 142° |
| 2026-05-06 22:49 | 43.68911 | -79.64849 | 557 ft | 12 kts | 223° |
| 2026-05-06 22:49 | 43.68850 | -79.64937 | 560 ft | 13 kts | 224° |
| 2026-05-06 22:49 | 43.68780 | -79.65030 | 555 ft | 15 kts | 221° |
| 2026-05-06 22:49 | 43.68701 | -79.65122 | 558 ft | 15 kts | 221° |
| 2026-05-06 22:50 | 43.68626 | -79.65218 | 560 ft | 14 kts | 213° |
| 2026-05-06 22:50 | 43.68529 | -79.65258 | 555 ft | 16 kts | 192° |
| 2026-05-06 22:50 | 43.68414 | -79.65297 | 554 ft | 17 kts | 207° |
| 2026-05-06 22:50 | 43.68328 | -79.65415 | 559 ft | 18 kts | 229° |
| 2026-05-06 22:51 | 43.68236 | -79.65546 | 554 ft | 19 kts | 225° |
| 2026-05-06 22:51 | 43.68141 | -79.65685 | 557 ft | 21 kts | 225° |
| 2026-05-06 22:51 | 43.68038 | -79.65830 | 563 ft | 21 kts | 226° |
| 2026-05-06 22:51 | 43.67943 | -79.65972 | 566 ft | 20 kts | 226° |
| 2026-05-06 22:52 | 43.67851 | -79.66106 | 566 ft | 18 kts | 226° |
| 2026-05-06 22:52 | 43.67760 | -79.66237 | 565 ft | 20 kts | 225° |
| 2026-05-06 22:52 | 43.67667 | -79.66375 | 570 ft | 20 kts | 227° |
| 2026-05-06 22:52 | 43.67570 | -79.66514 | 564 ft | 11 kts | 221° |
| 2026-05-06 22:53 | 43.67505 | -79.66506 | 565 ft | 10 kts | 136° |
| 2026-05-06 22:53 | 43.67448 | -79.66433 | 565 ft | 12 kts | 135° |
| 2026-05-06 22:53 | 43.67465 | -79.66334 | 566 ft | 11 kts | 47° |
| 2026-05-06 22:53 | 43.67467 | -79.66331 | 567 ft | 0 kts | 47° |
| 2026-05-06 22:54 | 43.67646 | -79.66071 | 568 ft | 88 kts | 45° |
| 2026-05-06 22:54 | 43.68250 | -79.65168 | 963 ft | 146 kts | 46° |
| 2026-05-06 22:55 | 43.69040 | -79.64160 | 2030 ft | 168 kts | 33° |
| 2026-05-06 22:55 | 43.70074 | -79.63224 | 3178 ft | 184 kts | 31° |
| 2026-05-06 22:55 | 43.71170 | -79.62126 | 4207 ft | 209 kts | 33° |
| 2026-05-06 22:55 | 43.72373 | -79.60844 | 5471 ft | 226 kts | 32° |
| 2026-05-06 22:56 | 43.73650 | -79.59490 | 6708 ft | 240 kts | 32° |
| 2026-05-06 22:56 | 43.74658 | -79.57535 | 7844 ft | 264 kts | 71° |
| 2026-05-06 22:56 | 43.74710 | -79.54996 | 9029 ft | 266 kts | 113° |
| 2026-05-06 22:56 | 43.73763 | -79.52936 | 10245 ft | 243 kts | 155° |
| 2026-05-06 22:57 | 43.72328 | -79.52180 | 11435 ft | 208 kts | 194° |
| 2026-05-06 22:57 | 43.70948 | -79.52482 | 12673 ft | 200 kts | 204° |
| 2026-05-06 22:57 | 43.69542 | -79.52752 | 13783 ft | 212 kts | 196° |
| 2026-05-06 22:57 | 43.68004 | -79.52718 | 14704 ft | 235 kts | 189° |
| 2026-05-06 22:58 | 43.66490 | -79.52561 | 15322 ft | 261 kts | 187° |
| 2026-05-06 22:58 | 43.64569 | -79.52350 | 16021 ft | 289 kts | 186° |
| 2026-05-06 22:58 | 43.62487 | -79.52158 | 16750 ft | 313 kts | 186° |
| 2026-05-06 22:58 | 43.60291 | -79.51951 | 18199 ft | 315 kts | 186° |
| 2026-05-06 22:59 | 43.58061 | -79.51743 | 19401 ft | 320 kts | 186° |
| 2026-05-06 22:59 | 43.55798 | -79.51670 | 19932 ft | 341 kts | 192° |
| 2026-05-06 22:59 | 43.53389 | -79.52122 | 19948 ft | 355 kts | 199° |
| 2026-05-06 22:59 | 43.50946 | -79.53089 | 19951 ft | 367 kts | 206° |
| 2026-05-06 23:00 | 43.48656 | -79.54541 | 19951 ft | 368 kts | 214° |
| 2026-05-06 23:00 | 43.46542 | -79.56464 | 19952 ft | 365 kts | 221° |
| 2026-05-06 23:00 | 43.44667 | -79.58801 | 19957 ft | 361 kts | 229° |
| 2026-05-06 23:00 | 43.43037 | -79.61442 | 19951 ft | 361 kts | 232° |
| 2026-05-06 23:01 | 43.41423 | -79.64087 | 19956 ft | 361 kts | 231° |
| 2026-05-06 23:01 | 43.39777 | -79.66704 | 19959 ft | 361 kts | 231° |
| 2026-05-06 23:01 | 43.38185 | -79.69284 | 19959 ft | 361 kts | 231° |
| 2026-05-06 23:01 | 43.36579 | -79.71927 | 19963 ft | 361 kts | 231° |
| 2026-05-06 23:02 | 43.34938 | -79.74592 | 19956 ft | 361 kts | 231° |
| 2026-05-06 23:02 | 43.33311 | -79.77210 | 19952 ft | 361 kts | 231° |
| 2026-05-06 23:02 | 43.31691 | -79.79833 | 19951 ft | 361 kts | 231° |
| 2026-05-06 23:02 | 43.30051 | -79.82496 | 19947 ft | 362 kts | 231° |
| 2026-05-06 23:03 | 43.28447 | -79.85086 | 19941 ft | 362 kts | 231° |
| 2026-05-06 23:03 | 43.27057 | -79.87999 | 19929 ft | 362 kts | 246° |
| 2026-05-06 23:03 | 43.26250 | -79.91281 | 19933 ft | 363 kts | 249° |
| 2026-05-06 23:03 | 43.25403 | -79.94398 | 19622 ft | 344 kts | 245° |
| 2026-05-06 23:04 | 43.24394 | -79.97343 | 19152 ft | 339 kts | 243° |
| 2026-05-06 23:04 | 43.23430 | -80.00257 | 18735 ft | 334 kts | 245° |
| 2026-05-06 23:04 | 43.22578 | -80.03193 | 18298 ft | 331 kts | 246° |
| 2026-05-06 23:04 | 43.21716 | -80.06128 | 17828 ft | 329 kts | 245° |
| 2026-05-06 23:05 | 43.21120 | -80.08029 | 17551 ft | 328 kts | 245° |
| 2026-05-06 23:05 | 43.19910 | -80.11853 | 16968 ft | 326 kts | 245° |
| 2026-05-06 23:05 | 43.19332 | -80.13743 | 16684 ft | 325 kts | 246° |
| 2026-05-06 23:05 | 43.18465 | -80.16597 | 16258 ft | 323 kts | 246° |
| 2026-05-06 23:06 | 43.17586 | -80.19439 | 15834 ft | 321 kts | 246° |
| 2026-05-06 23:06 | 43.16721 | -80.22218 | 15417 ft | 319 kts | 246° |
| 2026-05-06 23:06 | 43.15858 | -80.25004 | 15001 ft | 317 kts | 246° |
| 2026-05-06 23:06 | 43.14999 | -80.27786 | 14589 ft | 315 kts | 246° |
| 2026-05-06 23:07 | 43.14136 | -80.30566 | 14164 ft | 313 kts | 246° |
| 2026-05-06 23:07 | 43.13295 | -80.33271 | 13779 ft | 311 kts | 246° |
| 2026-05-06 23:07 | 43.12437 | -80.36030 | 13337 ft | 309 kts | 246° |
| 2026-05-06 23:07 | 43.11611 | -80.38684 | 12945 ft | 307 kts | 246° |
| 2026-05-06 23:08 | 43.10781 | -80.41350 | 12536 ft | 295 kts | 246° |
| 2026-05-06 23:08 | 43.10017 | -80.43802 | 12165 ft | 267 kts | 246° |
| 2026-05-06 23:08 | 43.09306 | -80.46077 | 11817 ft | 245 kts | 246° |
| 2026-05-06 23:08 | 43.08651 | -80.48172 | 11502 ft | 241 kts | 247° |
| 2026-05-06 23:09 | 43.07992 | -80.50280 | 11180 ft | 241 kts | 247° |
| 2026-05-06 23:09 | 43.07332 | -80.52389 | 10869 ft | 241 kts | 247° |
| 2026-05-06 23:09 | 43.06668 | -80.54508 | 10551 ft | 241 kts | 247° |
| 2026-05-06 23:09 | 43.06011 | -80.56606 | 10233 ft | 240 kts | 247° |
| 2026-05-06 23:10 | 43.05354 | -80.58699 | 9917 ft | 239 kts | 247° |
| 2026-05-06 23:10 | 43.04697 | -80.60793 | 9584 ft | 238 kts | 247° |
| 2026-05-06 23:10 | 43.04061 | -80.62817 | 9278 ft | 237 kts | 247° |
| 2026-05-06 23:10 | 43.03407 | -80.64900 | 8961 ft | 236 kts | 247° |
| 2026-05-06 23:11 | 43.02763 | -80.66945 | 8657 ft | 236 kts | 247° |
| 2026-05-06 23:11 | 43.02107 | -80.69025 | 8346 ft | 235 kts | 247° |
| 2026-05-06 23:11 | 43.01464 | -80.71069 | 8032 ft | 234 kts | 247° |
| 2026-05-06 23:11 | 43.00819 | -80.73112 | 7724 ft | 233 kts | 247° |
| 2026-05-06 23:12 | 43.00183 | -80.75127 | 7419 ft | 232 kts | 248° |
| 2026-05-06 23:12 | 42.99544 | -80.77150 | 7118 ft | 232 kts | 247° |
| 2026-05-06 23:12 | 42.98907 | -80.79166 | 6814 ft | 228 kts | 247° |
| 2026-05-06 23:12 | 42.98294 | -80.81100 | 6518 ft | 211 kts | 248° |
| 2026-05-06 23:13 | 42.97733 | -80.82873 | 6251 ft | 196 kts | 248° |
| 2026-05-06 23:13 | 42.97212 | -80.84518 | 6058 ft | 187 kts | 248° |
| 2026-05-06 23:13 | 42.96691 | -80.86161 | 5821 ft | 190 kts | 249° |
| 2026-05-06 23:13 | 42.96160 | -80.87837 | 5579 ft | 191 kts | 249° |
| 2026-05-06 23:14 | 42.95630 | -80.89496 | 5345 ft | 196 kts | 248° |
| 2026-05-06 23:14 | 42.94893 | -80.91067 | 5091 ft | 199 kts | 235° |
| 2026-05-06 23:14 | 42.93956 | -80.92489 | 4998 ft | 199 kts | 233° |
| 2026-05-06 23:14 | 42.93103 | -80.93953 | 4993 ft | 197 kts | 243° |
| 2026-05-06 23:15 | 42.92538 | -80.95621 | 4925 ft | 197 kts | 253° |
| 2026-05-06 23:15 | 42.92266 | -80.97469 | 4593 ft | 194 kts | 266° |
| 2026-05-06 23:15 | 42.92316 | -80.99286 | 4230 ft | 190 kts | 279° |
| 2026-05-06 23:15 | 42.92660 | -81.01015 | 3888 ft | 190 kts | 291° |
| 2026-05-06 23:16 | 42.93285 | -81.02599 | 3583 ft | 192 kts | 303° |
| 2026-05-06 23:16 | 42.94169 | -81.03965 | 3357 ft | 188 kts | 316° |
| 2026-05-06 23:16 | 42.95103 | -81.05050 | 3072 ft | 165 kts | 317° |
| 2026-05-06 23:16 | 42.95899 | -81.05997 | 2843 ft | 142 kts | 316° |
| 2026-05-06 23:17 | 42.96595 | -81.06834 | 2642 ft | 125 kts | 316° |
| 2026-05-06 23:17 | 42.97213 | -81.07577 | 2500 ft | 116 kts | 316° |
| 2026-05-06 23:17 | 42.97816 | -81.08301 | 2330 ft | 118 kts | 316° |
| 2026-05-06 23:17 | 42.98441 | -81.09049 | 2159 ft | 120 kts | 317° |
| 2026-05-06 23:18 | 42.99068 | -81.09804 | 1979 ft | 121 kts | 316° |
| 2026-05-06 23:18 | 42.99698 | -81.10561 | 1766 ft | 119 kts | 317° |
| 2026-05-06 23:18 | 43.00313 | -81.11300 | 1550 ft | 119 kts | 319° |
| 2026-05-06 23:18 | 43.00934 | -81.12044 | 1358 ft | 117 kts | 318° |
| 2026-05-06 23:19 | 43.01542 | -81.12773 | 1177 ft | 115 kts | 317° |
| 2026-05-06 23:19 | 43.02110 | -81.13474 | 1405 ft | 116 kts | 318° |
| 2026-05-06 23:19 | 43.02835 | -81.14290 | 1810 ft | 146 kts | 319° |
| 2026-05-06 23:19 | 43.03681 | -81.15236 | 2301 ft | 166 kts | 319° |
| 2026-05-06 23:20 | 43.04580 | -81.16246 | 3508 ft | 175 kts | 319° |
| 2026-05-06 23:20 | 43.05548 | -81.17307 | 4822 ft | 177 kts | 317° |
| 2026-05-06 23:20 | 43.06497 | -81.18272 | 5001 ft | 169 kts | 319° |
| 2026-05-06 23:20 | 43.07436 | -81.19185 | 4994 ft | 158 kts | 319° |
| 2026-05-06 23:21 | 43.08463 | -81.19665 | 4978 ft | 168 kts | 355° |
| 2026-05-06 23:21 | 43.09532 | -81.18934 | 4978 ft | 184 kts | 42° |
| 2026-05-06 23:21 | 43.10009 | -81.17293 | 4995 ft | 192 kts | 79° |
| 2026-05-06 23:21 | 43.10162 | -81.15452 | 5013 ft | 195 kts | 81° |
| 2026-05-06 23:22 | 43.09940 | -81.13681 | 5013 ft | 193 kts | 112° |
| 2026-05-06 23:22 | 43.09475 | -81.11910 | 5015 ft | 195 kts | 110° |
| 2026-05-06 23:22 | 43.09039 | -81.10163 | 5015 ft | 194 kts | 110° |
| 2026-05-06 23:22 | 43.08587 | -81.08425 | 5013 ft | 194 kts | 111° |
| 2026-05-06 23:23 | 43.08130 | -81.06687 | 5017 ft | 194 kts | 111° |
| 2026-05-06 23:23 | 43.07588 | -81.05014 | 4946 ft | 195 kts | 127° |
| 2026-05-06 23:23 | 43.06629 | -81.03720 | 4813 ft | 190 kts | 145° |
| 2026-05-06 23:23 | 43.05621 | -81.02545 | 4581 ft | 190 kts | 143° |
| 2026-05-06 23:24 | 43.04643 | -81.01363 | 4372 ft | 187 kts | 142° |
| 2026-05-06 23:24 | 43.03674 | -81.00210 | 4147 ft | 185 kts | 144° |
| 2026-05-06 23:24 | 43.02563 | -80.99385 | 3929 ft | 178 kts | 166° |
| 2026-05-06 23:24 | 43.01367 | -80.99068 | 3721 ft | 173 kts | 182° |
| 2026-05-06 23:25 | 43.00185 | -80.99227 | 3517 ft | 169 kts | 199° |
| 2026-05-06 23:25 | 42.99121 | -80.99806 | 3325 ft | 164 kts | 214° |
| 2026-05-06 23:25 | 42.98214 | -81.00753 | 3121 ft | 161 kts | 229° |
| 2026-05-06 23:25 | 42.97565 | -81.01923 | 2977 ft | 147 kts | 242° |
| 2026-05-06 23:26 | 42.97174 | -81.03165 | 2782 ft | 132 kts | 256° |
| 2026-05-06 23:26 | 42.97029 | -81.04185 | 2655 ft | 125 kts | 265° |
| 2026-05-06 23:26 | 42.97030 | -81.05353 | 2507 ft | 122 kts | 276° |
| 2026-05-06 23:26 | 42.97200 | -81.06482 | 2361 ft | 120 kts | 287° |
| 2026-05-06 23:27 | 42.97524 | -81.07521 | 2218 ft | 118 kts | 298° |
| 2026-05-06 23:27 | 42.97987 | -81.08446 | 2084 ft | 119 kts | 308° |
| 2026-05-06 23:27 | 42.98573 | -81.09226 | 1996 ft | 114 kts | 317° |
| 2026-05-06 23:27 | 42.99196 | -81.09958 | 1899 ft | 122 kts | 317° |
| 2026-05-06 23:28 | 42.99818 | -81.10706 | 1697 ft | 117 kts | 317° |
| 2026-05-06 23:28 | 43.00433 | -81.11444 | 1495 ft | 117 kts | 317° |
| 2026-05-06 23:28 | 43.01040 | -81.12169 | 1318 ft | 116 kts | 317° |
| 2026-05-06 23:28 | 43.01642 | -81.12899 | 1233 ft | 109 kts | 316° |
| 2026-05-06 23:29 | 43.02267 | -81.13615 | 1448 ft | 135 kts | 321° |
| 2026-05-06 23:29 | 43.03023 | -81.14433 | 2027 ft | 156 kts | 320° |
| 2026-05-06 23:29 | 43.04116 | -81.14923 | 3101 ft | 179 kts | 0° |
| 2026-05-06 23:29 | 43.05314 | -81.14342 | 4373 ft | 190 kts | 20° |
| 2026-05-06 23:30 | 43.06512 | -81.13512 | 5660 ft | 197 kts | 20° |
| 2026-05-06 23:30 | 43.07772 | -81.12598 | 6003 ft | 201 kts | 20° |
| 2026-05-06 23:30 | 43.08956 | -81.11692 | 5992 ft | 191 kts | 21° |
| 2026-05-06 23:30 | 43.10093 | -81.10813 | 5991 ft | 188 kts | 21° |
| 2026-05-06 23:31 | 43.11231 | -81.09934 | 5998 ft | 186 kts | 21° |
| 2026-05-06 23:31 | 43.12378 | -81.09047 | 5996 ft | 186 kts | 21° |
| 2026-05-06 23:31 | 43.13390 | -81.07948 | 5842 ft | 196 kts | 49° |
| 2026-05-06 23:31 | 43.13687 | -81.06105 | 5393 ft | 200 kts | 100° |
| 2026-05-06 23:32 | 43.13018 | -81.04592 | 5008 ft | 188 kts | 149° |
| 2026-05-06 23:32 | 43.11886 | -81.03975 | 4983 ft | 170 kts | 179° |
| 2026-05-06 23:32 | 43.10719 | -81.04127 | 5006 ft | 165 kts | 202° |
| 2026-05-06 23:32 | 43.09622 | -81.04506 | 5016 ft | 167 kts | 201° |
| 2026-05-06 23:33 | 43.08454 | -81.04837 | 5016 ft | 169 kts | 198° |
| 2026-05-06 23:33 | 43.07316 | -81.05121 | 5007 ft | 168 kts | 202° |
| 2026-05-06 23:33 | 43.06397 | -81.05948 | 5001 ft | 155 kts | 234° |
| 2026-05-06 23:33 | 43.05892 | -81.07199 | 4996 ft | 149 kts | 258° |
| 2026-05-06 23:34 | 43.05854 | -81.08591 | 4998 ft | 147 kts | 281° |
| 2026-05-06 23:34 | 43.06274 | -81.09869 | 4991 ft | 149 kts | 304° |
| 2026-05-06 23:34 | 43.07034 | -81.10833 | 5007 ft | 152 kts | 316° |
| 2026-05-06 23:34 | 43.07829 | -81.11762 | 5009 ft | 151 kts | 314° |
| 2026-05-06 23:35 | 43.08618 | -81.12704 | 5012 ft | 152 kts | 314° |
| 2026-05-06 23:35 | 43.09434 | -81.13677 | 5009 ft | 152 kts | 314° |
| 2026-05-06 23:35 | 43.10221 | -81.14614 | 5013 ft | 152 kts | 314° |
| 2026-05-06 23:35 | 43.11019 | -81.15564 | 5016 ft | 152 kts | 314° |
| 2026-05-06 23:36 | 43.11911 | -81.16358 | 4977 ft | 160 kts | 340° |
| 2026-05-06 23:36 | 43.13012 | -81.16296 | 4687 ft | 166 kts | 10° |
| 2026-05-06 23:36 | 43.13948 | -81.15270 | 4221 ft | 179 kts | 52° |
| 2026-05-06 23:36 | 43.14231 | -81.13621 | 3821 ft | 183 kts | 95° |
| 2026-05-06 23:37 | 43.13694 | -81.12092 | 3440 ft | 179 kts | 135° |
| 2026-05-06 23:37 | 43.12768 | -81.11015 | 3090 ft | 174 kts | 142° |
| 2026-05-06 23:37 | 43.11867 | -81.09985 | 2997 ft | 165 kts | 140° |
| 2026-05-06 23:37 | 43.10985 | -81.08938 | 2999 ft | 172 kts | 140° |
| 2026-05-06 23:38 | 43.10083 | -81.07864 | 3001 ft | 173 kts | 140° |
| 2026-05-06 23:38 | 43.09161 | -81.06765 | 3009 ft | 177 kts | 140° |
| 2026-05-06 23:38 | 43.08237 | -81.05666 | 3013 ft | 176 kts | 140° |
| 2026-05-06 23:38 | 43.07307 | -81.04559 | 3015 ft | 177 kts | 140° |
| 2026-05-06 23:39 | 43.06379 | -81.03443 | 3011 ft | 177 kts | 140° |
| 2026-05-06 23:39 | 43.05460 | -81.02340 | 3013 ft | 177 kts | 140° |
| 2026-05-06 23:39 | 43.04534 | -81.01229 | 3013 ft | 177 kts | 140° |
| 2026-05-06 23:39 | 43.03604 | -81.00134 | 3009 ft | 177 kts | 143° |
| 2026-05-06 23:40 | 43.02524 | -80.99370 | 2993 ft | 175 kts | 163° |
| 2026-05-06 23:40 | 43.01338 | -80.99067 | 3000 ft | 172 kts | 181° |
| 2026-05-06 23:40 | 43.00160 | -80.99238 | 3003 ft | 169 kts | 198° |
| 2026-05-06 23:40 | 42.99084 | -80.99837 | 2997 ft | 166 kts | 214° |
| 2026-05-06 23:41 | 42.98181 | -81.00801 | 2997 ft | 163 kts | 229° |
| 2026-05-06 23:41 | 42.97516 | -81.02033 | 2928 ft | 164 kts | 244° |
| 2026-05-06 23:41 | 42.97114 | -81.03468 | 2734 ft | 159 kts | 259° |
| 2026-05-06 23:41 | 42.96978 | -81.04968 | 2531 ft | 157 kts | 269° |
| 2026-05-06 23:42 | 42.97139 | -81.06437 | 2348 ft | 157 kts | 284° |
| 2026-05-06 23:42 | 42.97568 | -81.07789 | 2172 ft | 156 kts | 298° |
| 2026-05-06 23:42 | 42.98245 | -81.08960 | 1982 ft | 155 kts | 313° |
| 2026-05-06 23:42 | 42.99055 | -81.09897 | 1909 ft | 156 kts | 316° |
| 2026-05-06 23:43 | 42.99823 | -81.10807 | 1693 ft | 138 kts | 314° |
| 2026-05-06 23:43 | 43.00518 | -81.11636 | 1452 ft | 129 kts | 315° |
| 2026-05-06 23:43 | 43.01163 | -81.12395 | 1269 ft | 119 kts | 314° |
| 2026-05-06 23:43 | 43.01787 | -81.13132 | 1091 ft | 115 kts | 314° |
| 2026-05-06 23:44 | 43.02391 | -81.13813 | 937 ft | 113 kts | 315° |
| 2026-05-06 23:44 | 43.02926 | -81.14451 | 911 ft | 91 kts | 312° |
| 2026-05-06 23:44 | 43.03340 | -81.14945 | 912 ft | 68 kts | 321° |
| 2026-05-06 23:44 | 43.03645 | -81.15317 | 912 ft | 50 kts | 317° |
| 2026-05-06 23:45 | 43.03793 | -81.15487 | 911 ft | 23 kts | 317° |
| 2026-05-06 23:45 | 43.03891 | -81.15650 | 910 ft | 22 kts | 277° |
| 2026-05-06 23:45 | 43.03875 | -81.15840 | 910 ft | 18 kts | 239° |
| 2026-05-06 23:45 | 43.03773 | -81.15776 | 906 ft | 20 kts | 135° |
| 2026-05-06 23:46 | 43.03764 | -81.15764 | 906 ft | 0 kts | 140° |
| 2026-05-06 23:46 | 43.03741 | -81.15738 | 906 ft | 9 kts | 143° |
| 2026-05-06 23:46 | 43.03698 | -81.15770 | 906 ft | 9 kts | 261° |
| 2026-05-06 23:47 | 43.03687 | -81.15856 | 906 ft | 9 kts | 258° |
| 2026-05-06 23:47 | 43.03675 | -81.15937 | 907 ft | 9 kts | 260° |
| 2026-05-06 23:47 | 43.03664 | -81.16021 | 908 ft | 9 kts | 259° |
| 2026-05-06 23:47 | 43.03651 | -81.16112 | 908 ft | 10 kts | 259° |
| 2026-05-06 23:48 | 43.03641 | -81.16179 | 909 ft | 11 kts | 258° |
| 2026-05-06 23:48 | 43.03627 | -81.16275 | 910 ft | 11 kts | 258° |
| 2026-05-06 23:48 | 43.03612 | -81.16378 | 910 ft | 11 kts | 256° |
| 2026-05-06 23:48 | 43.03590 | -81.16486 | 909 ft | 13 kts | 253° |
| 2026-05-06 23:49 | 43.03563 | -81.16581 | 908 ft | 5 kts | 237° |
| 2026-05-06 23:49 | 43.03527 | -81.16587 | 907 ft | 7 kts | 142° |
| 2026-05-06 23:49 | 43.03527 | -81.16522 | 907 ft | 0 kts | 40° |